メインページ
METAR-TAF:

METAR-TAF

空港 :

メンドーサ, アルゼンチン

緯度: 32-50S, 経度: 068-47W, 海抜: 705m

現時点の気象観測

当レポートは26分前の06:00(UTC)に作成
南東の風 5kt
気温 19°C
湿度 68%
気圧 1015 hPa
視程10km以上
1,500メートル以下は雲なし、積乱雲なし

METAR: SAME 140600Z 14005KT CAVOK 19/13 Q1015

時間: 03:26 (06:26 UTC)

予報

当レポートは1時間26分前の05:00(UTC)に作成
予報は14日の 06時(UTC)から 15日の 06時(UTC)まで有効
変向風 3kt
視程10km以上
1,500メートル以下は雲なし、積乱雲なし
14日の 11時(UTC)から 14日の 14時(UTC)まで徐々に
北東の風 15kt

TAF: SAME 140500Z 1406/1506 VRB03KT CAVOK TX32/1420Z TN20/1410Z BECMG 1411/1414 05015KT

4,000以上の空港の気象観測と天気予報(METAR報とTAF報)

利用可能な観測所は地図上に黄色い丸と赤い丸で示す。

丸の上にカーソルを重ねると観測所名を参照できる。

次にクリックすると気象観測と天気予報を参照できる。

マップの切り替え:黒色「×」印の緑ボタンをクリックして拡大、「-」印の緑ボタンをクリックして縮小、緑色の三角印をクリックして隣りの地図に切り替え


METAR-TAF: